Darstellungsparameter: Aktuell verwendete Einstellungen:
Skalierung der Graphiken ... ?
xyx+y,   Skalierungsfaktor:      Skalierung: Modus: x, Faktor: 1
Darstellungszeitraum ... ?
Vom - - bis: - -   Zeitraum: 08.05.2019 - 08.05.2019
Min/Max/Avg-Anzeige ... ?
Zeige MMA aktuell
Zeige MMA Monat
Zeige MMA alles
Zeige --A aktuell
Zeige --A Monat
Zeige --A alles
Keine MMA-Anzeige
MMA:
Average (ber die Originaldaten)
MMA-Basis: 08.05.2019 - 08.05.2019
Quicknavigation für Darstellung... ?
Tage:      1T, 2T, 3T, 5T -1T -2T -3T -5T +1T +2T +3T +5T
Wochen: 1W, 2W, 3W -1W -2W -3W +1W +2W +3W
Monate: 1M, 3M, 6M -1M -3M -6M +1M +3M +6M
Jahre:    1J, 3J, 5J, 10J -1J -3J -5J -10J +1J +3J +5J +10J
Nutze für die Darstellung ... ?
Originaldaten oder Mittelwerte auf ...
Stundenbasis Tagesbasis Wochenbasis
Monatsbasis Jahresbasis      Datenbasis: Original-Daten
Darstellen als:
Statistik (Auto) Statistik J:M      Darstellung:
Zur Graphik,    zurück zur Übersicht aller Sensoren.
 
Tabellarische Datenbersicht: ?
 
Sensor: Nr:Datum:Temp:Abs-Feuchte:Windchill:Wind:
Aussen-T/F 1 08-05-2019 00:00:00 6.7 C 6.31 g/m*3 6.7 C 0 km/h
2 08-05-2019 00:05:00 6.6 C 6.27 g/m*3 6.6 C 0 km/h
3 08-05-2019 00:10:00 6.5 C 6.15 g/m*3 6.5 C 0 km/h
4 08-05-2019 00:15:00 6.3 C 6.14 g/m*3 6.3 C 0 km/h
5 08-05-2019 00:20:00 6.3 C 6.14 g/m*3 6.3 C 0 km/h
6 08-05-2019 00:25:00 6.2 C 6.1 g/m*3 6.2 C 0 km/h
7 08-05-2019 00:30:00 6.2 C 6.1 g/m*3 6.2 C 0 km/h
8 08-05-2019 00:35:00 6.3 C 6.14 g/m*3 6.3 C 0 km/h
9 08-05-2019 00:40:00 6.3 C 6.14 g/m*3 6.3 C 0 km/h
10 08-05-2019 00:45:00 6.2 C 6.1 g/m*3 6.2 C 0 km/h
11 08-05-2019 00:50:00 6.2 C 6.1 g/m*3 6.2 C 0 km/h
12 08-05-2019 00:55:00 6.1 C 6.06 g/m*3 6.1 C 0 km/h
13 08-05-2019 01:00:00 6.1 C 6.06 g/m*3 6.1 C 0 km/h
14 08-05-2019 01:05:00 6 C 6.1 g/m*3 6 C 0 km/h
15 08-05-2019 01:10:00 5.9 C 6.06 g/m*3 5.9 C 0 km/h
16 08-05-2019 01:15:00 5.9 C 6.06 g/m*3 5.9 C 0 km/h
17 08-05-2019 01:20:00 5.9 C 6.06 g/m*3 5.9 C 0 km/h
18 08-05-2019 01:25:00 5.8 C 6.02 g/m*3 5.8 C 0 km/h
19 08-05-2019 01:30:00 5.8 C 6.09 g/m*3 5.8 C 0 km/h
20 08-05-2019 01:35:00 5.7 C 6.05 g/m*3 5.7 C 0 km/h
21 08-05-2019 01:40:00 5.6 C 6.01 g/m*3 5.6 C 0 km/h
22 08-05-2019 01:45:00 5.5 C 5.97 g/m*3 5.5 C 0 km/h
23 08-05-2019 01:50:00 5.4 C 5.93 g/m*3 5.4 C 0 km/h
24 08-05-2019 01:55:00 5.4 C 5.93 g/m*3 5.4 C 0 km/h
25 08-05-2019 02:00:00 5.3 C 5.96 g/m*3 5.3 C 0 km/h
Sensor: Nr:Datum:Temp:Abs-Feuchte:Windchill:Wind:
Aussen-T/F 26 08-05-2019 02:05:00 5.3 C 5.96 g/m*3 5.3 C 0 km/h
27 08-05-2019 02:10:00 5.2 C 5.92 g/m*3 5.2 C 0 km/h
28 08-05-2019 02:15:00 5.2 C 5.92 g/m*3 5.2 C 0 km/h
29 08-05-2019 02:20:00 5.2 C 5.99 g/m*3 5.2 C 0 km/h
30 08-05-2019 02:25:00 5.2 C 5.99 g/m*3 5.2 C 0 km/h
31 08-05-2019 02:30:00 5.2 C 5.99 g/m*3 5.2 C 0 km/h
32 08-05-2019 02:35:00 5.1 C 5.95 g/m*3 5.1 C 0 km/h
33 08-05-2019 02:40:00 5.1 C 6.02 g/m*3 5.1 C 0 km/h
34 08-05-2019 02:45:00 5.1 C 6.02 g/m*3 5.1 C 0 km/h
35 08-05-2019 02:50:00 5 C 5.98 g/m*3 5 C 0 km/h
36 08-05-2019 02:55:00 4.9 C 5.94 g/m*3 4.9 C 0 km/h
37 08-05-2019 03:00:00 4.9 C 6.01 g/m*3 4.9 C 0 km/h
38 08-05-2019 03:05:00 4.8 C 5.9 g/m*3 4.8 C 0 km/h
39 08-05-2019 03:10:00 4.8 C 5.97 g/m*3 4.8 C 0 km/h
40 08-05-2019 03:15:00 4.7 C 5.93 g/m*3 4.7 C 0 km/h
41 08-05-2019 03:20:00 4.7 C 5.93 g/m*3 4.7 C 0 km/h
42 08-05-2019 03:25:00 4.7 C 5.93 g/m*3 4.7 C 0 km/h
43 08-05-2019 03:30:00 4.7 C 6 g/m*3 4.7 C 0 km/h
44 08-05-2019 03:35:00 4.7 C 6 g/m*3 4.7 C 0 km/h
45 08-05-2019 03:40:00 4.6 C 5.96 g/m*3 4.6 C 0 km/h
46 08-05-2019 03:45:00 4.6 C 5.96 g/m*3 4.6 C 0 km/h
47 08-05-2019 03:50:00 4.6 C 5.96 g/m*3 4.6 C 0 km/h
48 08-05-2019 03:55:00 4.6 C 5.96 g/m*3 4.6 C 0 km/h
49 08-05-2019 04:00:00 4.7 C 6.06 g/m*3 4.7 C 0 km/h
50 08-05-2019 04:05:00 4.8 C 6.1 g/m*3 4.8 C 0 km/h
Sensor: Nr:Datum:Temp:Abs-Feuchte:Windchill:Wind:
Aussen-T/F 51 08-05-2019 04:10:00 4.8 C 6.1 g/m*3 4.8 C 0 km/h
52 08-05-2019 04:15:00 4.9 C 6.14 g/m*3 4.9 C 0 km/h
53 08-05-2019 04:20:00 4.9 C 6.14 g/m*3 4.9 C 0 km/h
54 08-05-2019 04:25:00 4.9 C 6.14 g/m*3 4.9 C 0 km/h
55 08-05-2019 04:30:00 5 C 6.18 g/m*3 5 C 0 km/h
56 08-05-2019 04:35:00 5 C 6.18 g/m*3 5 C 0 km/h
57 08-05-2019 04:40:00 5.1 C 6.22 g/m*3 5.1 C 0 km/h
58 08-05-2019 04:45:00 5.1 C 6.22 g/m*3 5.1 C 0 km/h
59 08-05-2019 04:50:00 5.1 C 6.22 g/m*3 5.1 C 0 km/h
60 08-05-2019 04:55:00 5.1 C 6.22 g/m*3 5.1 C 0 km/h
61 08-05-2019 05:00:00 5.2 C 6.27 g/m*3 5.2 C 0 km/h
62 08-05-2019 05:05:00 5.2 C 6.27 g/m*3 5.2 C 0 km/h
63 08-05-2019 05:10:00 5.2 C 6.27 g/m*3 5.2 C 0 km/h
64 08-05-2019 05:15:00 5.2 C 6.27 g/m*3 5.2 C 0 km/h
65 08-05-2019 05:20:00 5.2 C 6.27 g/m*3 5.2 C 0 km/h
66 08-05-2019 05:25:00 5.2 C 6.27 g/m*3 5.2 C 0 km/h
67 08-05-2019 05:30:00 5.3 C 6.31 g/m*3 5.3 C 0 km/h
68 08-05-2019 05:35:00 5.3 C 6.31 g/m*3 5.3 C 0 km/h
69 08-05-2019 05:40:00 5.3 C 6.31 g/m*3 5.3 C 0 km/h
70 08-05-2019 05:45:00 5.3 C 6.31 g/m*3 5.3 C 0 km/h
71 08-05-2019 05:50:00 5.3 C 6.31 g/m*3 5.3 C 0 km/h
72 08-05-2019 05:55:00 5.3 C 6.31 g/m*3 5.3 C 0 km/h
73 08-05-2019 06:00:00 5.3 C 6.31 g/m*3 5.3 C 0 km/h
74 08-05-2019 06:05:00 5.4 C 6.35 g/m*3 5.4 C 0 km/h
75 08-05-2019 06:10:00 5.4 C 6.42 g/m*3 5.4 C 0 km/h
Sensor: Nr:Datum:Temp:Abs-Feuchte:Windchill:Wind:
Aussen-T/F 76 08-05-2019 06:15:00 5.4 C 6.42 g/m*3 5.4 C 0 km/h
77 08-05-2019 06:20:00 5.4 C 6.42 g/m*3 5.4 C 0 km/h
78 08-05-2019 06:25:00 5.4 C 6.35 g/m*3 5.4 C 0 km/h
79 08-05-2019 06:30:00 5.5 C 6.39 g/m*3 5.5 C 0 km/h
80 08-05-2019 06:35:00 5.5 C 6.39 g/m*3 5.5 C 0 km/h
81 08-05-2019 06:40:00 5.6 C 6.43 g/m*3 5.6 C 0 km/h
82 08-05-2019 06:45:00 5.6 C 6.43 g/m*3 5.6 C 0 km/h
83 08-05-2019 06:50:00 5.7 C 6.48 g/m*3 5.7 C 0 km/h
84 08-05-2019 06:55:00 5.7 C 6.48 g/m*3 5.7 C 0 km/h
85 08-05-2019 07:00:00 5.8 C 6.59 g/m*3 5.8 C 0 km/h
86 08-05-2019 07:05:00 5.8 C 6.59 g/m*3 5.8 C 0 km/h
87 08-05-2019 07:10:00 5.9 C 6.56 g/m*3 5.9 C 1.6 km/h
88 08-05-2019 07:15:00 6 C 6.6 g/m*3 6 C 1.6 km/h
89 08-05-2019 07:20:00 6.1 C 6.65 g/m*3 6.1 C 0 km/h
90 08-05-2019 07:25:00 6.2 C 6.69 g/m*3 6.2 C 0 km/h
91 08-05-2019 07:30:00 6.2 C 6.62 g/m*3 6.2 C 0 km/h
92 08-05-2019 07:35:00 6.3 C 6.66 g/m*3 6.3 C 0 km/h
93 08-05-2019 07:40:00 6.4 C 6.71 g/m*3 6.4 C 0 km/h
94 08-05-2019 07:45:00 6.6 C 6.79 g/m*3 6.6 C 0 km/h
95 08-05-2019 07:50:00 6.6 C 6.72 g/m*3 6.6 C 1.6 km/h
96 08-05-2019 07:55:00 6.7 C 6.76 g/m*3 6.7 C 1.6 km/h
97 08-05-2019 08:00:00 6.8 C 6.81 g/m*3 6.8 C 0 km/h
98 08-05-2019 08:05:00 6.9 C 6.85 g/m*3 6.9 C 0 km/h
99 08-05-2019 08:10:00 7 C 6.9 g/m*3 7 C 1.6 km/h
100 08-05-2019 08:15:00 7.1 C 6.94 g/m*3 7.1 C 0 km/h
Sensor: Nr:Datum:Temp:Abs-Feuchte:Windchill:Wind:
Aussen-T/F 101 08-05-2019 08:20:00 7.2 C 6.99 g/m*3 7.2 C 1.6 km/h
102 08-05-2019 08:25:00 7.3 C 7.03 g/m*3 7.3 C 0 km/h
103 08-05-2019 08:30:00 7.5 C 7.2 g/m*3 7.5 C 1.6 km/h
104 08-05-2019 08:35:00 7.7 C 7.22 g/m*3 7.7 C 3.2 km/h
105 08-05-2019 08:40:00 7.8 C 7.18 g/m*3 7.8 C 3.2 km/h
106 08-05-2019 08:45:00 8 C 7.11 g/m*3 8 C 4.8 km/h
107 08-05-2019 08:50:00 8.2 C 7.12 g/m*3 8.2 C 3.2 km/h
108 08-05-2019 08:55:00 8.4 C 7.04 g/m*3 8.4 C 4.8 km/h
109 08-05-2019 09:00:00 8.7 C 7.26 g/m*3 8.7 C 4.8 km/h
110 08-05-2019 09:05:00 8.8 C 7.14 g/m*3 7.58 C 8.1 km/h
111 08-05-2019 09:10:00 8.9 C 7.1 g/m*3 7.69 C 8.1 km/h
112 08-05-2019 09:15:00 8.9 C 7.18 g/m*3 8.9 C 1.6 km/h
113 08-05-2019 09:20:00 9 C 7.23 g/m*3 9 C 1.6 km/h
114 08-05-2019 09:25:00 8.9 C 7.1 g/m*3 8.9 C 3.2 km/h
115 08-05-2019 09:30:00 8.9 C 7.18 g/m*3 8.9 C 3.2 km/h
116 08-05-2019 09:35:00 8.9 C 7.27 g/m*3 8.9 C 3.2 km/h
117 08-05-2019 09:40:00 8.8 C 7.22 g/m*3 8.8 C 3.2 km/h
118 08-05-2019 09:45:00 8.8 C 7.22 g/m*3 8.8 C 0 km/h
119 08-05-2019 09:50:00 8.8 C 7.31 g/m*3 8.8 C 3.2 km/h
120 08-05-2019 09:55:00 8.8 C 7.31 g/m*3 8.8 C 1.6 km/h
121 08-05-2019 10:00:00 8.8 C 7.4 g/m*3 8.8 C 3.2 km/h
122 08-05-2019 10:05:00 8.8 C 7.49 g/m*3 8.8 C 1.6 km/h
123 08-05-2019 10:10:00 8.9 C 7.62 g/m*3 8.9 C 1.6 km/h
124 08-05-2019 10:15:00 8.9 C 7.71 g/m*3 8.9 C 3.2 km/h
125 08-05-2019 10:20:00 8.9 C 7.62 g/m*3 8.9 C 0 km/h
Sensor: Nr:Datum:Temp:Abs-Feuchte:Windchill:Wind:
Aussen-T/F 126 08-05-2019 10:25:00 9 C 7.76 g/m*3 9 C 1.6 km/h
127 08-05-2019 10:30:00 9 C 7.76 g/m*3 9 C 3.2 km/h
128 08-05-2019 10:35:00 9.1 C 7.72 g/m*3 9.1 C 0 km/h
129 08-05-2019 10:40:00 9.1 C 7.72 g/m*3 9.1 C 0 km/h
130 08-05-2019 10:45:00 9.2 C 7.86 g/m*3 9.2 C 0 km/h
131 08-05-2019 10:50:00 9.3 C 7.91 g/m*3 9.3 C 3.2 km/h
132 08-05-2019 10:55:00 9.3 C 7.91 g/m*3 9.3 C 0 km/h
133 08-05-2019 11:00:00 9.4 C 7.96 g/m*3 9.4 C 0 km/h
134 08-05-2019 11:05:00 9.4 C 8.05 g/m*3 9.4 C 1.6 km/h
135 08-05-2019 11:10:00 9.5 C 8.1 g/m*3 9.5 C 0 km/h
136 08-05-2019 11:15:00 9.6 C 8.15 g/m*3 9.6 C 0 km/h
137 08-05-2019 11:20:00 9.5 C 8.1 g/m*3 9.5 C 0 km/h
138 08-05-2019 11:25:00 9.6 C 8.15 g/m*3 9.6 C 0 km/h
139 08-05-2019 11:30:00 9.6 C 8.15 g/m*3 9.6 C 1.6 km/h
140 08-05-2019 11:35:00 9.7 C 8.3 g/m*3 9.7 C 3.2 km/h
141 08-05-2019 11:40:00 9.8 C 8.35 g/m*3 9.8 C 1.6 km/h
142 08-05-2019 11:45:00 9.9 C 8.5 g/m*3 9.9 C 0 km/h
143 08-05-2019 11:50:00 10.1 C 8.51 g/m*3 10.1 C 0 km/h
144 08-05-2019 11:55:00 10.2 C 8.56 g/m*3 10.2 C 1.6 km/h
145 08-05-2019 12:00:00 10.3 C 8.62 g/m*3 10.3 C 3.2 km/h
146 08-05-2019 12:05:00 10.4 C 8.58 g/m*3 10.4 C 3.2 km/h
147 08-05-2019 12:10:00 10.6 C 8.69 g/m*3 10.6 C 1.6 km/h
148 08-05-2019 12:15:00 10.8 C 8.9 g/m*3 10.8 C 4.8 km/h
149 08-05-2019 12:20:00 11.1 C 9.07 g/m*3 11.1 C 1.6 km/h
150 08-05-2019 12:25:00 11.3 C 9.08 g/m*3 11.3 C 1.6 km/h
Sensor: Nr:Datum:Temp:Abs-Feuchte:Windchill:Wind:
Aussen-T/F 151 08-05-2019 12:30:00 11.4 C 9.03 g/m*3 11.4 C 6.4 km/h
152 08-05-2019 12:35:00 11.7 C 9.2 g/m*3 11.7 C 3.2 km/h
153 08-05-2019 12:40:00 11.8 C 9.26 g/m*3 11.8 C 8.1 km/h
154 08-05-2019 12:45:00 11.9 C 9.21 g/m*3 11.9 C 6.4 km/h
155 08-05-2019 12:50:00 12.2 C 9.5 g/m*3 12.2 C 8.1 km/h
156 08-05-2019 12:55:00 12.4 C 9.51 g/m*3 12.4 C 4.8 km/h
157 08-05-2019 13:00:00 12.6 C 9.4 g/m*3 12.6 C 8.1 km/h
158 08-05-2019 13:05:00 12.7 C 9.46 g/m*3 12.7 C 4.8 km/h
159 08-05-2019 13:10:00 12.8 C 9.52 g/m*3 12.8 C 6.4 km/h
160 08-05-2019 13:15:00 12.9 C 9.58 g/m*3 12.9 C 3.2 km/h
161 08-05-2019 13:20:00 13.2 C 9.64 g/m*3 13.2 C 4.8 km/h
162 08-05-2019 13:25:00 13.6 C 9.89 g/m*3 13.6 C 6.4 km/h
163 08-05-2019 13:30:00 13.9 C 9.95 g/m*3 13.9 C 8.1 km/h
164 08-05-2019 13:35:00 14.2 C 10.01 g/m*3 14.2 C 8.1 km/h
165 08-05-2019 13:40:00 14.3 C 9.95 g/m*3 14.3 C 6.4 km/h
166 08-05-2019 13:45:00 14.3 C 9.83 g/m*3 14.3 C 4.8 km/h
167 08-05-2019 13:50:00 14.4 C 9.89 g/m*3 14.4 C 3.2 km/h
168 08-05-2019 13:55:00 14.5 C 10.07 g/m*3 14.5 C 6.4 km/h
169 08-05-2019 14:00:00 14.6 C 9.89 g/m*3 14.6 C 6.4 km/h
170 08-05-2019 14:05:00 14.7 C 9.95 g/m*3 14.7 C 8.1 km/h
171 08-05-2019 14:10:00 14.7 C 9.95 g/m*3 14.7 C 3.2 km/h
172 08-05-2019 14:15:00 14.8 C 10.01 g/m*3 14.8 C 4.8 km/h
173 08-05-2019 14:20:00 14.8 C 10.01 g/m*3 14.8 C 4.8 km/h
174 08-05-2019 14:25:00 14.7 C 9.82 g/m*3 14.7 C 6.4 km/h
175 08-05-2019 14:30:00 14.6 C 9.76 g/m*3 14.6 C 6.4 km/h
Sensor: Nr:Datum:Temp:Abs-Feuchte:Windchill:Wind:
Aussen-T/F 176 08-05-2019 14:35:00 14.6 C 10.01 g/m*3 14.6 C 6.4 km/h
177 08-05-2019 14:40:00 14.6 C 9.76 g/m*3 14.6 C 6.4 km/h
178 08-05-2019 14:45:00 14.6 C 9.76 g/m*3 14.6 C 6.4 km/h
179 08-05-2019 14:50:00 14.8 C 10.01 g/m*3 14.8 C 4.8 km/h
180 08-05-2019 14:55:00 14.9 C 10.07 g/m*3 14.9 C 6.4 km/h
181 08-05-2019 15:00:00 15 C 10 g/m*3 15 C 4.8 km/h
182 08-05-2019 15:05:00 15 C 9.87 g/m*3 15 C 3.2 km/h
183 08-05-2019 15:10:00 14.9 C 9.94 g/m*3 14.9 C 4.8 km/h
184 08-05-2019 15:15:00 14.8 C 9.75 g/m*3 14.8 C 4.8 km/h
185 08-05-2019 15:20:00 14.7 C 9.82 g/m*3 14.7 C 6.4 km/h
186 08-05-2019 15:25:00 14.5 C 9.7 g/m*3 14.5 C 4.8 km/h
187 08-05-2019 15:30:00 14.4 C 9.77 g/m*3 14.4 C 8.1 km/h
188 08-05-2019 15:35:00 14.4 C 9.77 g/m*3 14.4 C 3.2 km/h
189 08-05-2019 15:40:00 14.4 C 9.77 g/m*3 14.4 C 4.8 km/h
190 08-05-2019 15:45:00 14.3 C 9.95 g/m*3 14.3 C 6.4 km/h
191 08-05-2019 15:50:00 14.2 C 9.89 g/m*3 14.2 C 3.2 km/h
192 08-05-2019 15:55:00 14.2 C 10.01 g/m*3 14.2 C 9.7 km/h
193 08-05-2019 16:00:00 14.1 C 10.07 g/m*3 14.1 C 9.7 km/h
194 08-05-2019 16:05:00 13.9 C 10.07 g/m*3 13.9 C 4.8 km/h
195 08-05-2019 16:10:00 13.8 C 10.13 g/m*3 13.8 C 6.4 km/h
196 08-05-2019 16:15:00 13.7 C 10.18 g/m*3 13.7 C 4.8 km/h
197 08-05-2019 16:20:00 13.6 C 10.12 g/m*3 13.6 C 4.8 km/h
198 08-05-2019 16:25:00 13.4 C 10.11 g/m*3 13.4 C 4.8 km/h
199 08-05-2019 16:30:00 13.3 C 10.05 g/m*3 13.3 C 6.4 km/h
200 08-05-2019 16:35:00 13.2 C 10.1 g/m*3 13.2 C 4.8 km/h
Sensor: Nr:Datum:Temp:Abs-Feuchte:Windchill:Wind:
Aussen-T/F 201 08-05-2019 16:40:00 13.1 C 10.04 g/m*3 13.1 C 1.6 km/h
202 08-05-2019 16:45:00 13 C 10.09 g/m*3 13 C 3.2 km/h
203 08-05-2019 16:50:00 12.9 C 10.03 g/m*3 12.9 C 4.8 km/h
204 08-05-2019 16:55:00 12.7 C 9.91 g/m*3 12.7 C 8.1 km/h
205 08-05-2019 17:00:00 12.7 C 10.02 g/m*3 12.7 C 1.6 km/h
206 08-05-2019 17:05:00 12.7 C 10.02 g/m*3 12.7 C 0 km/h
207 08-05-2019 17:10:00 12.6 C 10.07 g/m*3 12.6 C 4.8 km/h
208 08-05-2019 17:15:00 12.6 C 10.07 g/m*3 12.6 C 0 km/h
209 08-05-2019 17:20:00 12.6 C 10.07 g/m*3 12.6 C 4.8 km/h
210 08-05-2019 17:25:00 12.5 C 10 g/m*3 12.5 C 6.4 km/h
211 08-05-2019 17:30:00 12.5 C 10.11 g/m*3 12.5 C 0 km/h
212 08-05-2019 17:35:00 12.4 C 10.05 g/m*3 12.4 C 4.8 km/h
213 08-05-2019 17:40:00 12.4 C 10.05 g/m*3 12.4 C 1.6 km/h
214 08-05-2019 17:45:00 12.4 C 10.05 g/m*3 12.4 C 3.2 km/h
215 08-05-2019 17:50:00 12.4 C 10.05 g/m*3 12.4 C 6.4 km/h
216 08-05-2019 17:55:00 12.4 C 10.05 g/m*3 12.4 C 3.2 km/h
217 08-05-2019 18:00:00 12.3 C 9.99 g/m*3 12.3 C 3.2 km/h
218 08-05-2019 18:05:00 12.4 C 10.16 g/m*3 12.4 C 3.2 km/h
219 08-05-2019 18:10:00 12.4 C 10.16 g/m*3 12.4 C 1.6 km/h
220 08-05-2019 18:15:00 12.5 C 10.22 g/m*3 12.5 C 6.4 km/h
221 08-05-2019 18:20:00 12.5 C 10.22 g/m*3 12.5 C 4.8 km/h
222 08-05-2019 18:25:00 12.5 C 10.22 g/m*3 12.5 C 1.6 km/h
223 08-05-2019 18:30:00 12.6 C 10.29 g/m*3 12.6 C 0 km/h
224 08-05-2019 18:35:00 12.6 C 10.29 g/m*3 12.6 C 3.2 km/h
225 08-05-2019 18:40:00 12.5 C 10.22 g/m*3 12.5 C 0 km/h
Sensor: Nr:Datum:Temp:Abs-Feuchte:Windchill:Wind:
Aussen-T/F 226 08-05-2019 18:45:00 12.5 C 10.22 g/m*3 12.5 C 0 km/h
227 08-05-2019 18:50:00 12.6 C 10.29 g/m*3 12.6 C 0 km/h
228 08-05-2019 18:55:00 12.6 C 10.29 g/m*3 12.6 C 0 km/h
229 08-05-2019 19:00:00 12.5 C 10.22 g/m*3 12.5 C 0 km/h
230 08-05-2019 19:05:00 12.4 C 10.16 g/m*3 12.4 C 1.6 km/h
231 08-05-2019 19:10:00 12.4 C 10.16 g/m*3 12.4 C 0 km/h
232 08-05-2019 19:15:00 12.3 C 10.1 g/m*3 12.3 C 0 km/h
233 08-05-2019 19:20:00 12.3 C 10.1 g/m*3 12.3 C 0 km/h
234 08-05-2019 19:25:00 12.3 C 10.21 g/m*3 12.3 C 0 km/h
235 08-05-2019 19:30:00 12.2 C 10.04 g/m*3 12.2 C 0 km/h
236 08-05-2019 19:35:00 12.2 C 10.14 g/m*3 12.2 C 0 km/h
237 08-05-2019 19:40:00 12.2 C 10.14 g/m*3 12.2 C 0 km/h
238 08-05-2019 19:45:00 12.1 C 10.08 g/m*3 12.1 C 0 km/h
239 08-05-2019 19:50:00 12.1 C 10.08 g/m*3 12.1 C 0 km/h
240 08-05-2019 19:55:00 12.1 C 10.08 g/m*3 12.1 C 0 km/h
241 08-05-2019 20:00:00 12.1 C 10.08 g/m*3 12.1 C 0 km/h
242 08-05-2019 20:05:00 12 C 10.02 g/m*3 12 C 0 km/h
243 08-05-2019 20:10:00 12 C 10.02 g/m*3 12 C 0 km/h
244 08-05-2019 20:15:00 11.9 C 9.96 g/m*3 11.9 C 1.6 km/h
245 08-05-2019 20:20:00 11.8 C 9.89 g/m*3 11.8 C 1.6 km/h
246 08-05-2019 20:25:00 11.8 C 9.89 g/m*3 11.8 C 0 km/h
247 08-05-2019 20:30:00 11.7 C 9.83 g/m*3 11.7 C 0 km/h
248 08-05-2019 20:35:00 11.6 C 9.77 g/m*3 11.6 C 0 km/h
249 08-05-2019 20:40:00 11.6 C 9.77 g/m*3 11.6 C 0 km/h
250 08-05-2019 20:45:00 11.4 C 9.65 g/m*3 11.4 C 0 km/h
Sensor: Nr:Datum:Temp:Abs-Feuchte:Windchill:Wind:
Aussen-T/F 251 08-05-2019 20:50:00 11.4 C 9.65 g/m*3 11.4 C 0 km/h
252 08-05-2019 20:55:00 11.3 C 9.59 g/m*3 11.3 C 1.6 km/h
253 08-05-2019 21:00:00 11.2 C 9.53 g/m*3 11.2 C 0 km/h
254 08-05-2019 21:05:00 11.2 C 9.53 g/m*3 11.2 C 0 km/h
255 08-05-2019 21:10:00 11.2 C 9.53 g/m*3 11.2 C 0 km/h
256 08-05-2019 21:15:00 11.1 C 9.57 g/m*3 11.1 C 0 km/h
257 08-05-2019 21:20:00 11.1 C 9.57 g/m*3 11.1 C 0 km/h
258 08-05-2019 21:25:00 11 C 9.51 g/m*3 11 C 0 km/h
259 08-05-2019 21:30:00 11 C 9.51 g/m*3 11 C 1.6 km/h
260 08-05-2019 21:35:00 10.9 C 9.45 g/m*3 10.9 C 0 km/h
261 08-05-2019 21:40:00 10.9 C 9.45 g/m*3 10.9 C 0 km/h
262 08-05-2019 21:45:00 10.8 C 9.29 g/m*3 10.8 C 0 km/h
263 08-05-2019 21:50:00 10.6 C 9.17 g/m*3 10.6 C 0 km/h
264 08-05-2019 21:55:00 10.5 C 9.12 g/m*3 10.5 C 0 km/h
265 08-05-2019 22:00:00 10.4 C 9.06 g/m*3 10.4 C 0 km/h
266 08-05-2019 22:05:00 10.3 C 9.1 g/m*3 10.3 C 0 km/h
267 08-05-2019 22:10:00 10.3 C 9.1 g/m*3 10.3 C 3.2 km/h
268 08-05-2019 22:15:00 10.3 C 9.1 g/m*3 10.3 C 1.6 km/h
269 08-05-2019 22:20:00 10.2 C 9.04 g/m*3 10.2 C 1.6 km/h
270 08-05-2019 22:25:00 10.2 C 9.04 g/m*3 10.2 C 1.6 km/h
271 08-05-2019 22:30:00 10.1 C 8.98 g/m*3 10.1 C 3.2 km/h
272 08-05-2019 22:35:00 10.1 C 8.98 g/m*3 10.1 C 3.2 km/h
273 08-05-2019 22:40:00 10.1 C 8.98 g/m*3 10.1 C 1.6 km/h
274 08-05-2019 22:45:00 10 C 8.93 g/m*3 10 C 3.2 km/h
275 08-05-2019 22:50:00 9.9 C 8.87 g/m*3 9.9 C 0 km/h
Sensor: Nr:Datum:Temp:Abs-Feuchte:Windchill:Wind:
Aussen-T/F 276 08-05-2019 22:55:00 9.8 C 8.81 g/m*3 9.8 C 0 km/h
277 08-05-2019 23:00:00 9.8 C 8.81 g/m*3 9.8 C 0 km/h
278 08-05-2019 23:05:00 9.7 C 8.76 g/m*3 9.7 C 0 km/h
279 08-05-2019 23:10:00 9.6 C 8.7 g/m*3 8.91 C 6.4 km/h
280 08-05-2019 23:15:00 9.5 C 8.56 g/m*3 9.5 C 3.2 km/h
281 08-05-2019 23:20:00 9.4 C 8.5 g/m*3 9.4 C 3.2 km/h
282 08-05-2019 23:25:00 9.4 C 8.5 g/m*3 9.4 C 3.2 km/h
283 08-05-2019 23:30:00 9.3 C 8.45 g/m*3 9.3 C 3.2 km/h
284 08-05-2019 23:35:00 9.3 C 8.54 g/m*3 9.3 C 1.6 km/h
285 08-05-2019 23:40:00 9.3 C 8.54 g/m*3 8.56 C 6.4 km/h
286 08-05-2019 23:45:00 9.3 C 8.54 g/m*3 9.3 C 0 km/h
287 08-05-2019 23:50:00 9.2 C 8.48 g/m*3 9.2 C 1.6 km/h
288 08-05-2019 23:55:00 9.2 C 8.39 g/m*3 9.2 C 1.6 km/h

Legende:
   Min
   Max


Maximal/Minimal-Werte vom 08.05.2019 - 08.05.2019

Sensor Min Max Avg
Temp
(Aussen-T/F)
4.6 °C
08-05-2019  03:40:00
15 °C
08-05-2019  15:00:00
9.42 °C
Abs-Feuchte
(Aussen-T/F)
5.9 g/m*3
08-05-2019  03:05:00
10.29 g/m*3
08-05-2019  18:30:00
8.13 g/m*3
Windchill
(Aussen-T/F)
4.6 C
08-05-2019  03:40:00
15 C
08-05-2019  15:00:00
9.37 C

Die Daten stammen von einer Davis Vantage Pro 2 Wetter-Station und werden unter Linux mit der Software wview2wettercgi und aufbereitet. Alle Angaben erfolgen ohne Gewähr für ihre Vollständigkeit oder Richtigkeit.
Kontakt: Rainer Krienke krienke@uni-koblenz.de . Meine Webseiten an der Uni Koblenz oder privat.
Version: $Revision: 0.78 $